sensor_id;sensor_type;location;lat;lon;timestamp;P1;P2
26802;HPM;14378;51.796;5.808;2023-04-24T00:05:18;10.75;9.75
26802;HPM;14378;51.796;5.808;2023-04-24T00:07:19;11.00;10.00
26802;HPM;14378;51.796;5.808;2023-04-24T00:09:21;12.25;11.25
26802;HPM;14378;51.796;5.808;2023-04-24T00:11:22;12.50;11.50
26802;HPM;14378;51.796;5.808;2023-04-24T00:13:23;12.75;11.75
26802;HPM;14378;51.796;5.808;2023-04-24T00:15:25;10.00;9.00
26802;HPM;14378;51.796;5.808;2023-04-24T00:17:26;11.25;10.25
26802;HPM;14378;51.796;5.808;2023-04-24T00:19:28;13.00;12.00
26802;HPM;14378;51.796;5.808;2023-04-24T00:21:29;11.67;10.67
26802;HPM;14378;51.796;5.808;2023-04-24T00:23:32;12.00;11.00
26802;HPM;14378;51.796;5.808;2023-04-24T00:25:34;12.50;11.50
26802;HPM;14378;51.796;5.808;2023-04-24T00:27:35;12.50;11.50
26802;HPM;14378;51.796;5.808;2023-04-24T00:29:37;10.67;9.67
26802;HPM;14378;51.796;5.808;2023-04-24T00:31:38;11.25;10.25
26802;HPM;14378;51.796;5.808;2023-04-24T00:33:39;10.75;9.75
26802;HPM;14378;51.796;5.808;2023-04-24T00:35:41;12.75;11.75
26802;HPM;14378;51.796;5.808;2023-04-24T00:37:41;12.00;11.00
26802;HPM;14378;51.796;5.808;2023-04-24T00:39:43;10.75;9.75
26802;HPM;14378;51.796;5.808;2023-04-24T00:41:44;12.00;11.00
26802;HPM;14378;51.796;5.808;2023-04-24T00:43:48;10.50;9.50
26802;HPM;14378;51.796;5.808;2023-04-24T00:45:50;11.00;10.00
26802;HPM;14378;51.796;5.808;2023-04-24T00:47:52;10.75;9.75
26802;HPM;14378;51.796;5.808;2023-04-24T00:49:54;9.00;8.00
26802;HPM;14378;51.796;5.808;2023-04-24T00:51:57;11.50;10.50
26802;HPM;14378;51.796;5.808;2023-04-24T00:54:00;10.00;9.00
26802;HPM;14378;51.796;5.808;2023-04-24T00:56:05;10.00;9.00
26802;HPM;14378;51.796;5.808;2023-04-24T00:58:06;11.50;10.50
26802;HPM;14378;51.796;5.808;2023-04-24T01:00:09;12.00;11.00
26802;HPM;14378;51.796;5.808;2023-04-24T01:02:10;11.50;10.50
26802;HPM;14378;51.796;5.808;2023-04-24T01:04:20;11.25;10.25
26802;HPM;14378;51.796;5.808;2023-04-24T01:06:22;12.50;11.50
26802;HPM;14378;51.796;5.808;2023-04-24T01:08:28;11.75;10.75
26802;HPM;14378;51.796;5.808;2023-04-24T01:10:31;11.75;10.75
26802;HPM;14378;51.796;5.808;2023-04-24T01:12:34;11.75;10.75
26802;HPM;14378;51.796;5.808;2023-04-24T01:14:36;13.00;12.00
26802;HPM;14378;51.796;5.808;2023-04-24T01:16:38;12.75;11.75
26802;HPM;14378;51.796;5.808;2023-04-24T01:18:41;12.50;11.50
26802;HPM;14378;51.796;5.808;2023-04-24T01:20:44;11.25;10.25
26802;HPM;14378;51.796;5.808;2023-04-24T01:22:49;12.50;11.50
26802;HPM;14378;51.796;5.808;2023-04-24T01:24:51;12.75;11.75
26802;HPM;14378;51.796;5.808;2023-04-24T01:26:53;11.50;10.50
26802;HPM;14378;51.796;5.808;2023-04-24T01:28:54;13.33;12.33
26802;HPM;14378;51.796;5.808;2023-04-24T01:30:56;11.75;10.75
26802;HPM;14378;51.796;5.808;2023-04-24T01:32:57;12.25;11.25
26802;HPM;14378;51.796;5.808;2023-04-24T01:34:59;12.50;11.50
26802;HPM;14378;51.796;5.808;2023-04-24T01:37:02;13.50;12.50
26802;HPM;14378;51.796;5.808;2023-04-24T01:39:03;14.00;13.00
26802;HPM;14378;51.796;5.808;2023-04-24T01:41:05;14.50;13.50
26802;HPM;14378;51.796;5.808;2023-04-24T01:43:07;14.25;13.25
26802;HPM;14378;51.796;5.808;2023-04-24T01:45:10;14.50;13.50
26802;HPM;14378;51.796;5.808;2023-04-24T01:47:13;16.25;15.25
26802;HPM;14378;51.796;5.808;2023-04-24T01:49:14;16.00;15.00
26802;HPM;14378;51.796;5.808;2023-04-24T01:51:20;13.00;12.00
26802;HPM;14378;51.796;5.808;2023-04-24T01:53:27;15.00;14.00
26802;HPM;14378;51.796;5.808;2023-04-24T01:55:29;16.50;15.50
26802;HPM;14378;51.796;5.808;2023-04-24T01:57:30;13.75;12.75
26802;HPM;14378;51.796;5.808;2023-04-24T01:59:33;19.75;18.75
26802;HPM;14378;51.796;5.808;2023-04-24T02:01:35;16.75;15.75
26802;HPM;14378;51.796;5.808;2023-04-24T02:03:36;16.00;15.00
26802;HPM;14378;51.796;5.808;2023-04-24T02:05:37;15.50;14.50
26802;HPM;14378;51.796;5.808;2023-04-24T02:07:38;16.25;15.25
26802;HPM;14378;51.796;5.808;2023-04-24T02:11:43;15.75;14.75
26802;HPM;14378;51.796;5.808;2023-04-24T02:13:44;14.75;13.75
26802;HPM;14378;51.796;5.808;2023-04-24T02:15:46;14.50;13.50
26802;HPM;14378;51.796;5.808;2023-04-24T02:17:49;12.50;11.50
26802;HPM;14378;51.796;5.808;2023-04-24T02:19:50;13.67;12.67
26802;HPM;14378;51.796;5.808;2023-04-24T02:21:51;13.50;12.50
26802;HPM;14378;51.796;5.808;2023-04-24T02:23:57;14.00;13.00
26802;HPM;14378;51.796;5.808;2023-04-24T02:25:59;14.25;13.25
26802;HPM;14378;51.796;5.808;2023-04-24T02:27:59;14.75;13.75
26802;HPM;14378;51.796;5.808;2023-04-24T02:30:01;13.50;12.50
26802;HPM;14378;51.796;5.808;2023-04-24T02:32:03;16.75;15.75
26802;HPM;14378;51.796;5.808;2023-04-24T02:34:04;13.00;12.00
26802;HPM;14378;51.796;5.808;2023-04-24T02:36:05;13.00;12.00
26802;HPM;14378;51.796;5.808;2023-04-24T02:38:06;19.33;18.33
26802;HPM;14378;51.796;5.808;2023-04-24T02:40:19;17.25;16.25
26802;HPM;14378;51.796;5.808;2023-04-24T02:42:21;14.50;13.50
26802;HPM;14378;51.796;5.808;2023-04-24T02:44:22;15.25;14.25
26802;HPM;14378;51.796;5.808;2023-04-24T02:46:24;12.75;11.75
26802;HPM;14378;51.796;5.808;2023-04-24T02:48:25;16.33;15.33
26802;HPM;14378;51.796;5.808;2023-04-24T02:50:26;16.00;15.00
26802;HPM;14378;51.796;5.808;2023-04-24T02:52:27;16.75;15.75
26802;HPM;14378;51.796;5.808;2023-04-24T02:54:28;19.67;18.67
26802;HPM;14378;51.796;5.808;2023-04-24T02:56:30;16.75;15.75
26802;HPM;14378;51.796;5.808;2023-04-24T02:58:38;19.00;18.00
26802;HPM;14378;51.796;5.808;2023-04-24T03:00:39;17.67;16.67
26802;HPM;14378;51.796;5.808;2023-04-24T03:02:40;17.75;16.75
26802;HPM;14378;51.796;5.808;2023-04-24T03:04:42;16.75;15.75
26802;HPM;14378;51.796;5.808;2023-04-24T03:06:43;19.50;18.50
26802;HPM;14378;51.796;5.808;2023-04-24T03:08:44;19.75;18.75
26802;HPM;14378;51.796;5.808;2023-04-24T03:10:45;19.00;18.00
26802;HPM;14378;51.796;5.808;2023-04-24T03:12:51;19.25;18.25
26802;HPM;14378;51.796;5.808;2023-04-24T03:14:53;18.75;17.75
26802;HPM;14378;51.796;5.808;2023-04-24T03:16:54;17.00;16.00
26802;HPM;14378;51.796;5.808;2023-04-24T03:18:55;21.33;20.33
26802;HPM;14378;51.796;5.808;2023-04-24T03:20:59;19.50;18.50
26802;HPM;14378;51.796;5.808;2023-04-24T03:23:01;21.25;20.25
26802;HPM;14378;51.796;5.808;2023-04-24T03:25:03;18.75;17.75
26802;HPM;14378;51.796;5.808;2023-04-24T03:27:05;18.75;17.75
26802;HPM;14378;51.796;5.808;2023-04-24T03:29:25;17.00;16.00
26802;HPM;14378;51.796;5.808;2023-04-24T03:31:26;18.75;17.75
26802;HPM;14378;51.796;5.808;2023-04-24T03:33:27;19.75;18.75
26802;HPM;14378;51.796;5.808;2023-04-24T03:35:34;17.75;16.75
26802;HPM;14378;51.796;5.808;2023-04-24T03:37:40;18.00;17.00
26802;HPM;14378;51.796;5.808;2023-04-24T03:40:00;20.50;19.50
26802;HPM;14378;51.796;5.808;2023-04-24T03:42:02;19.00;18.00
26802;HPM;14378;51.796;5.808;2023-04-24T03:44:18;19.50;18.50
26802;HPM;14378;51.796;5.808;2023-04-24T03:46:21;17.25;16.25
26802;HPM;14378;51.796;5.808;2023-04-24T03:48:28;20.00;19.00
26802;HPM;14378;51.796;5.808;2023-04-24T03:50:32;19.50;18.50
26802;HPM;14378;51.796;5.808;2023-04-24T03:52:34;19.50;18.50
26802;HPM;14378;51.796;5.808;2023-04-24T03:54:36;19.25;18.25
26802;HPM;14378;51.796;5.808;2023-04-24T03:56:37;19.25;18.25
26802;HPM;14378;51.796;5.808;2023-04-24T03:58:38;17.00;16.00
26802;HPM;14378;51.796;5.808;2023-04-24T04:00:39;16.75;15.75
26802;HPM;14378;51.796;5.808;2023-04-24T04:03:01;17.50;16.50
26802;HPM;14378;51.796;5.808;2023-04-24T04:05:02;16.75;15.75
26802;HPM;14378;51.796;5.808;2023-04-24T04:07:04;18.00;17.00
26802;HPM;14378;51.796;5.808;2023-04-24T04:09:10;16.00;15.00
26802;HPM;14378;51.796;5.808;2023-04-24T04:11:11;18.75;17.75
26802;HPM;14378;51.796;5.808;2023-04-24T04:13:13;17.75;16.75
26802;HPM;14378;51.796;5.808;2023-04-24T04:15:14;16.00;15.00
26802;HPM;14378;51.796;5.808;2023-04-24T04:17:18;20.00;19.00
26802;HPM;14378;51.796;5.808;2023-04-24T04:19:19;16.00;15.00
26802;HPM;14378;51.796;5.808;2023-04-24T04:21:21;16.33;15.33
26802;HPM;14378;51.796;5.808;2023-04-24T04:23:24;17.33;16.33
26802;HPM;14378;51.796;5.808;2023-04-24T04:25:55;15.25;14.25
26802;HPM;14378;51.796;5.808;2023-04-24T04:28:02;15.75;14.75
26802;HPM;14378;51.796;5.808;2023-04-24T04:30:04;17.50;16.50
26802;HPM;14378;51.796;5.808;2023-04-24T04:32:12;15.25;14.25
26802;HPM;14378;51.796;5.808;2023-04-24T04:34:13;16.25;15.25
26802;HPM;14378;51.796;5.808;2023-04-24T04:36:15;16.50;15.50
26802;HPM;14378;51.796;5.808;2023-04-24T04:38:21;15.50;14.50
26802;HPM;14378;51.796;5.808;2023-04-24T04:40:32;16.00;15.00
26802;HPM;14378;51.796;5.808;2023-04-24T04:42:37;18.75;17.75
26802;HPM;14378;51.796;5.808;2023-04-24T04:44:40;17.00;16.00
26802;HPM;14378;51.796;5.808;2023-04-24T04:46:49;14.00;13.00
26802;HPM;14378;51.796;5.808;2023-04-24T04:49:00;15.50;14.50
26802;HPM;14378;51.796;5.808;2023-04-24T04:51:03;13.75;12.75
26802;HPM;14378;51.796;5.808;2023-04-24T04:53:04;16.50;15.50
26802;HPM;14378;51.796;5.808;2023-04-24T04:55:09;15.00;14.00
26802;HPM;14378;51.796;5.808;2023-04-24T04:57:28;16.50;15.50
26802;HPM;14378;51.796;5.808;2023-04-24T04:59:30;16.00;15.00
26802;HPM;14378;51.796;5.808;2023-04-24T05:01:37;18.00;17.00
26802;HPM;14378;51.796;5.808;2023-04-24T05:03:40;15.33;14.33
26802;HPM;14378;51.796;5.808;2023-04-24T05:05:44;15.00;14.00
26802;HPM;14378;51.796;5.808;2023-04-24T05:07:47;17.00;16.00
26802;HPM;14378;51.796;5.808;2023-04-24T05:09:54;15.50;14.50
26802;HPM;14378;51.796;5.808;2023-04-24T05:11:55;16.25;15.25
26802;HPM;14378;51.796;5.808;2023-04-24T05:13:58;15.75;14.75
26802;HPM;14378;51.796;5.808;2023-04-24T05:16:08;12.67;11.67
26802;HPM;14378;51.796;5.808;2023-04-24T05:18:11;13.00;12.00
26802;HPM;14378;51.796;5.808;2023-04-24T05:20:12;15.25;14.25
26802;HPM;14378;51.796;5.808;2023-04-24T05:22:15;16.00;15.00
26802;HPM;14378;51.796;5.808;2023-04-24T05:24:23;13.50;12.50
26802;HPM;14378;51.796;5.808;2023-04-24T05:26:54;13.75;12.75
26802;HPM;14378;51.796;5.808;2023-04-24T05:29:01;14.00;13.00
26802;HPM;14378;51.796;5.808;2023-04-24T05:31:06;15.00;14.00
26802;HPM;14378;51.796;5.808;2023-04-24T05:33:07;10.67;9.67
26802;HPM;14378;51.796;5.808;2023-04-24T05:35:09;12.00;11.00
26802;HPM;14378;51.796;5.808;2023-04-24T05:37:11;12.50;11.50
26802;HPM;14378;51.796;5.808;2023-04-24T05:39:13;12.00;11.00
26802;HPM;14378;51.796;5.808;2023-04-24T05:41:15;12.50;11.50
26802;HPM;14378;51.796;5.808;2023-04-24T05:43:19;10.75;9.75
26802;HPM;14378;51.796;5.808;2023-04-24T05:45:20;10.75;9.75
26802;HPM;14378;51.796;5.808;2023-04-24T05:47:21;12.50;11.50
26802;HPM;14378;51.796;5.808;2023-04-24T05:49:23;13.50;12.50
26802;HPM;14378;51.796;5.808;2023-04-24T05:51:24;12.00;11.00
26802;HPM;14378;51.796;5.808;2023-04-24T05:53:26;10.00;9.00
26802;HPM;14378;51.796;5.808;2023-04-24T05:55:27;9.75;8.75
26802;HPM;14378;51.796;5.808;2023-04-24T05:57:31;10.00;9.00
26802;HPM;14378;51.796;5.808;2023-04-24T05:59:37;10.67;9.67
26802;HPM;14378;51.796;5.808;2023-04-24T06:01:39;10.00;9.00
26802;HPM;14378;51.796;5.808;2023-04-24T06:03:48;9.25;8.25
26802;HPM;14378;51.796;5.808;2023-04-24T06:05:49;10.00;9.00
26802;HPM;14378;51.796;5.808;2023-04-24T06:07:57;8.50;7.50
26802;HPM;14378;51.796;5.808;2023-04-24T06:10:01;8.50;7.50
26802;HPM;14378;51.796;5.808;2023-04-24T06:12:06;8.50;7.50
26802;HPM;14378;51.796;5.808;2023-04-24T06:14:29;8.33;7.33
26802;HPM;14378;51.796;5.808;2023-04-24T06:16:50;9.00;8.00
26802;HPM;14378;51.796;5.808;2023-04-24T06:19:07;11.00;10.00
26802;HPM;14378;51.796;5.808;2023-04-24T06:21:09;8.00;7.00
26802;HPM;14378;51.796;5.808;2023-04-24T06:23:12;7.00;6.00
26802;HPM;14378;51.796;5.808;2023-04-24T06:25:13;9.75;8.75
26802;HPM;14378;51.796;5.808;2023-04-24T06:27:14;8.50;7.50
26802;HPM;14378;51.796;5.808;2023-04-24T06:29:15;7.00;6.00
26802;HPM;14378;51.796;5.808;2023-04-24T06:31:20;7.00;6.00
26802;HPM;14378;51.796;5.808;2023-04-24T06:33:28;8.00;7.00
26802;HPM;14378;51.796;5.808;2023-04-24T06:35:30;7.00;6.00
26802;HPM;14378;51.796;5.808;2023-04-24T06:37:31;6.00;5.00
26802;HPM;14378;51.796;5.808;2023-04-24T06:39:32;8.33;7.33
26802;HPM;14378;51.796;5.808;2023-04-24T06:41:33;7.75;6.75
26802;HPM;14378;51.796;5.808;2023-04-24T06:43:35;7.00;6.00
26802;HPM;14378;51.796;5.808;2023-04-24T06:45:35;8.50;7.50
26802;HPM;14378;51.796;5.808;2023-04-24T06:47:37;5.00;4.00
26802;HPM;14378;51.796;5.808;2023-04-24T06:49:38;8.00;7.00
26802;HPM;14378;51.796;5.808;2023-04-24T06:51:40;12.25;11.25
26802;HPM;14378;51.796;5.808;2023-04-24T06:53:41;8.00;7.00
26802;HPM;14378;51.796;5.808;2023-04-24T06:55:42;6.25;5.25
26802;HPM;14378;51.796;5.808;2023-04-24T06:57:44;8.00;7.00
26802;HPM;14378;51.796;5.808;2023-04-24T06:59:45;10.00;9.00
26802;HPM;14378;51.796;5.808;2023-04-24T07:01:50;6.75;5.75
26802;HPM;14378;51.796;5.808;2023-04-24T07:03:52;7.00;6.00
26802;HPM;14378;51.796;5.808;2023-04-24T07:05:54;9.75;8.75
26802;HPM;14378;51.796;5.808;2023-04-24T07:07:55;6.00;5.00
26802;HPM;14378;51.796;5.808;2023-04-24T07:09:58;7.75;6.75
26802;HPM;14378;51.796;5.808;2023-04-24T07:11:59;8.75;7.75
26802;HPM;14378;51.796;5.808;2023-04-24T07:14:00;9.50;8.50
26802;HPM;14378;51.796;5.808;2023-04-24T07:16:01;9.00;8.00
26802;HPM;14378;51.796;5.808;2023-04-24T07:18:03;7.00;6.00
26802;HPM;14378;51.796;5.808;2023-04-24T07:20:07;8.75;7.75
26802;HPM;14378;51.796;5.808;2023-04-24T07:22:10;12.00;11.00
26802;HPM;14378;51.796;5.808;2023-04-24T07:24:18;7.75;6.75
26802;HPM;14378;51.796;5.808;2023-04-24T07:26:19;10.25;9.25
26802;HPM;14378;51.796;5.808;2023-04-24T07:28:21;7.00;6.00
26802;HPM;14378;51.796;5.808;2023-04-24T07:30:23;9.50;8.50
26802;HPM;14378;51.796;5.808;2023-04-24T07:32:26;9.00;8.00
26802;HPM;14378;51.796;5.808;2023-04-24T07:34:27;9.00;8.00
26802;HPM;14378;51.796;5.808;2023-04-24T07:36:28;9.00;8.00
26802;HPM;14378;51.796;5.808;2023-04-24T07:38:30;8.50;7.50
26802;HPM;14378;51.796;5.808;2023-04-24T07:40:34;9.00;8.00
26802;HPM;14378;51.796;5.808;2023-04-24T07:42:38;9.75;8.75
26802;HPM;14378;51.796;5.808;2023-04-24T07:44:39;8.00;7.00
26802;HPM;14378;51.796;5.808;2023-04-24T07:46:42;9.00;8.00
26802;HPM;14378;51.796;5.808;2023-04-24T07:48:43;10.00;9.00
26802;HPM;14378;51.796;5.808;2023-04-24T07:50:49;9.75;8.75
26802;HPM;14378;51.796;5.808;2023-04-24T07:52:51;10.75;9.75
26802;HPM;14378;51.796;5.808;2023-04-24T07:54:55;10.00;9.00
26802;HPM;14378;51.796;5.808;2023-04-24T07:57:02;12.00;11.00
26802;HPM;14378;51.796;5.808;2023-04-24T07:59:06;12.00;11.00
26802;HPM;14378;51.796;5.808;2023-04-24T08:01:07;10.00;9.00
26802;HPM;14378;51.796;5.808;2023-04-24T08:03:08;12.25;11.25
26802;HPM;14378;51.796;5.808;2023-04-24T08:05:09;15.00;14.00
26802;HPM;14378;51.796;5.808;2023-04-24T08:07:11;17.50;16.50
26802;HPM;14378;51.796;5.808;2023-04-24T08:09:15;15.00;14.00
26802;HPM;14378;51.796;5.808;2023-04-24T08:11:36;14.00;13.00
26802;HPM;14378;51.796;5.808;2023-04-24T08:13:37;14.00;13.00
26802;HPM;14378;51.796;5.808;2023-04-24T08:15:39;12.50;11.50
26802;HPM;14378;51.796;5.808;2023-04-24T08:17:40;16.00;15.00
26802;HPM;14378;51.796;5.808;2023-04-24T08:19:42;15.00;14.00
26802;HPM;14378;51.796;5.808;2023-04-24T08:21:48;13.75;12.75
26802;HPM;14378;51.796;5.808;2023-04-24T08:23:49;12.25;11.25
26802;HPM;14378;51.796;5.808;2023-04-24T08:25:50;12.25;11.25
26802;HPM;14378;51.796;5.808;2023-04-24T08:27:52;12.75;11.75
26802;HPM;14378;51.796;5.808;2023-04-24T08:29:56;14.00;13.00
26802;HPM;14378;51.796;5.808;2023-04-24T08:31:59;11.75;10.75
26802;HPM;14378;51.796;5.808;2023-04-24T08:34:00;13.67;12.67
26802;HPM;14378;51.796;5.808;2023-04-24T08:36:07;17.00;16.00
26802;HPM;14378;51.796;5.808;2023-04-24T08:38:08;16.67;15.67
26802;HPM;14378;51.796;5.808;2023-04-24T08:40:15;14.00;13.00
26802;HPM;14378;51.796;5.808;2023-04-24T08:42:21;13.75;12.75
26802;HPM;14378;51.796;5.808;2023-04-24T08:44:23;15.00;14.00
26802;HPM;14378;51.796;5.808;2023-04-24T08:46:25;16.75;15.75
26802;HPM;14378;51.796;5.808;2023-04-24T08:48:26;15.25;14.25
26802;HPM;14378;51.796;5.808;2023-04-24T08:50:29;14.00;13.00
26802;HPM;14378;51.796;5.808;2023-04-24T08:52:35;15.50;14.50
26802;HPM;14378;51.796;5.808;2023-04-24T08:54:37;16.50;15.50
26802;HPM;14378;51.796;5.808;2023-04-24T08:56:43;17.00;16.00
26802;HPM;14378;51.796;5.808;2023-04-24T08:58:45;17.00;16.00
26802;HPM;14378;51.796;5.808;2023-04-24T09:00:57;18.25;17.25
26802;HPM;14378;51.796;5.808;2023-04-24T09:03:03;16.67;15.67
26802;HPM;14378;51.796;5.808;2023-04-24T09:05:12;16.50;15.50
26802;HPM;14378;51.796;5.808;2023-04-24T09:07:25;15.75;14.75
26802;HPM;14378;51.796;5.808;2023-04-24T09:09:30;16.50;15.50
26802;HPM;14378;51.796;5.808;2023-04-24T09:11:35;15.00;14.00
26802;HPM;14378;51.796;5.808;2023-04-24T09:13:40;19.67;18.67
26802;HPM;14378;51.796;5.808;2023-04-24T09:15:51;19.25;18.25
26802;HPM;14378;51.796;5.808;2023-04-24T09:17:53;19.00;18.00
26802;HPM;14378;51.796;5.808;2023-04-24T09:19:59;16.50;15.50
26802;HPM;14378;51.796;5.808;2023-04-24T09:22:04;18.75;17.75
26802;HPM;14378;51.796;5.808;2023-04-24T09:24:08;16.00;15.00
26802;HPM;14378;51.796;5.808;2023-04-24T09:26:25;14.50;13.50
26802;HPM;14378;51.796;5.808;2023-04-24T09:28:30;17.00;16.00
26802;HPM;14378;51.796;5.808;2023-04-24T09:30:40;19.50;18.50
26802;HPM;14378;51.796;5.808;2023-04-24T09:32:41;15.75;14.75
26802;HPM;14378;51.796;5.808;2023-04-24T09:34:42;14.25;13.25
26802;HPM;14378;51.796;5.808;2023-04-24T09:36:49;14.25;13.25
26802;HPM;14378;51.796;5.808;2023-04-24T09:38:53;15.50;14.50
26802;HPM;14378;51.796;5.808;2023-04-24T09:41:01;16.00;15.00
26802;HPM;14378;51.796;5.808;2023-04-24T09:43:05;16.50;15.50
26802;HPM;14378;51.796;5.808;2023-04-24T09:45:11;17.50;16.50
26802;HPM;14378;51.796;5.808;2023-04-24T09:47:12;12.75;11.75
26802;HPM;14378;51.796;5.808;2023-04-24T09:49:15;14.75;13.75
26802;HPM;14378;51.796;5.808;2023-04-24T09:51:37;13.50;12.50
26802;HPM;14378;51.796;5.808;2023-04-24T09:53:38;14.25;13.25
26802;HPM;14378;51.796;5.808;2023-04-24T09:55:47;14.00;13.00
26802;HPM;14378;51.796;5.808;2023-04-24T09:57:54;13.67;12.67
26802;HPM;14378;51.796;5.808;2023-04-24T09:59:57;11.75;10.75
26802;HPM;14378;51.796;5.808;2023-04-24T10:01:58;12.00;11.00
26802;HPM;14378;51.796;5.808;2023-04-24T10:04:02;10.75;9.75
26802;HPM;14378;51.796;5.808;2023-04-24T10:06:03;14.00;13.00
26802;HPM;14378;51.796;5.808;2023-04-24T10:08:10;13.00;12.00
26802;HPM;14378;51.796;5.808;2023-04-24T10:10:11;15.75;14.75
26802;HPM;14378;51.796;5.808;2023-04-24T10:12:12;13.00;12.00
26802;HPM;14378;51.796;5.808;2023-04-24T10:14:16;15.75;14.75
26802;HPM;14378;51.796;5.808;2023-04-24T10:16:19;12.00;11.00
26802;HPM;14378;51.796;5.808;2023-04-24T10:18:22;14.25;13.25
26802;HPM;14378;51.796;5.808;2023-04-24T10:20:27;11.00;10.00
26802;HPM;14378;51.796;5.808;2023-04-24T10:22:33;11.00;10.00
26802;HPM;14378;51.796;5.808;2023-04-24T10:24:35;11.75;10.75
26802;HPM;14378;51.796;5.808;2023-04-24T10:28:40;11.75;10.75
26802;HPM;14378;51.796;5.808;2023-04-24T10:30:43;12.25;11.25
26802;HPM;14378;51.796;5.808;2023-04-24T10:32:44;10.67;9.67
26802;HPM;14378;51.796;5.808;2023-04-24T10:34:45;11.00;10.00
26802;HPM;14378;51.796;5.808;2023-04-24T10:36:50;16.00;15.00
26802;HPM;14378;51.796;5.808;2023-04-24T10:38:54;12.00;11.00
26802;HPM;14378;51.796;5.808;2023-04-24T10:41:08;11.00;10.00
26802;HPM;14378;51.796;5.808;2023-04-24T10:43:10;8.75;7.75
26802;HPM;14378;51.796;5.808;2023-04-24T10:45:20;11.50;10.50
26802;HPM;14378;51.796;5.808;2023-04-24T10:47:22;9.25;8.25
26802;HPM;14378;51.796;5.808;2023-04-24T10:49:30;10.00;9.00
26802;HPM;14378;51.796;5.808;2023-04-24T10:53:57;9.00;8.00
26802;HPM;14378;51.796;5.808;2023-04-24T10:58:04;13.25;12.25
26802;HPM;14378;51.796;5.808;2023-04-24T11:02:18;11.00;10.00
26802;HPM;14378;51.796;5.808;2023-04-24T11:04:35;10.00;9.00
26802;HPM;14378;51.796;5.808;2023-04-24T11:06:37;10.25;9.25
26802;HPM;14378;51.796;5.808;2023-04-24T11:08:45;9.00;8.00
26802;HPM;14378;51.796;5.808;2023-04-24T11:10:54;9.75;8.75
26802;HPM;14378;51.796;5.808;2023-04-24T11:13:01;9.00;8.00
26802;HPM;14378;51.796;5.808;2023-04-24T11:15:03;9.00;8.00
26802;HPM;14378;51.796;5.808;2023-04-24T11:17:26;9.75;8.75
26802;HPM;14378;51.796;5.808;2023-04-24T11:19:33;8.00;7.00
26802;HPM;14378;51.796;5.808;2023-04-24T11:23:49;10.00;9.00
26802;HPM;14378;51.796;5.808;2023-04-24T11:26:09;10.25;9.25
26802;HPM;14378;51.796;5.808;2023-04-24T11:28:20;10.50;9.50
26802;HPM;14378;51.796;5.808;2023-04-24T11:30:25;10.00;9.00
26802;HPM;14378;51.796;5.808;2023-04-24T11:34:39;9.00;8.00
26802;HPM;14378;51.796;5.808;2023-04-24T11:36:43;9.50;8.50
26802;HPM;14378;51.796;5.808;2023-04-24T11:38:48;11.25;10.25
26802;HPM;14378;51.796;5.808;2023-04-24T11:40:53;10.00;9.00
26802;HPM;14378;51.796;5.808;2023-04-24T11:42:56;7.25;6.25
26802;HPM;14378;51.796;5.808;2023-04-24T11:45:00;9.25;8.25
26802;HPM;14378;51.796;5.808;2023-04-24T11:47:04;9.50;8.50
26802;HPM;14378;51.796;5.808;2023-04-24T11:49:07;9.00;8.00
26802;HPM;14378;51.796;5.808;2023-04-24T11:51:08;10.25;9.25
26802;HPM;14378;51.796;5.808;2023-04-24T11:53:09;10.75;9.75
26802;HPM;14378;51.796;5.808;2023-04-24T11:57:21;7.75;6.75
26802;HPM;14378;51.796;5.808;2023-04-24T11:59:24;9.00;8.00
26802;HPM;14378;51.796;5.808;2023-04-24T12:01:26;10.75;9.75
26802;HPM;14378;51.796;5.808;2023-04-24T12:03:27;12.00;11.00
26802;HPM;14378;51.796;5.808;2023-04-24T12:05:28;6.33;5.33
26802;HPM;14378;51.796;5.808;2023-04-24T12:07:31;12.00;11.00
26802;HPM;14378;51.796;5.808;2023-04-24T12:09:46;8.25;7.25
26802;HPM;14378;51.796;5.808;2023-04-24T12:11:57;10.25;9.25
26802;HPM;14378;51.796;5.808;2023-04-24T12:14:08;13.00;12.00
26802;HPM;14378;51.796;5.808;2023-04-24T12:16:11;7.00;6.00
26802;HPM;14378;51.796;5.808;2023-04-24T12:18:12;9.00;8.00
26802;HPM;14378;51.796;5.808;2023-04-24T12:20:14;10.00;9.00
26802;HPM;14378;51.796;5.808;2023-04-24T12:22:16;8.00;7.00
26802;HPM;14378;51.796;5.808;2023-04-24T12:24:18;9.75;8.75
26802;HPM;14378;51.796;5.808;2023-04-24T12:26:19;9.00;8.00
26802;HPM;14378;51.796;5.808;2023-04-24T12:28:22;10.00;9.00
26802;HPM;14378;51.796;5.808;2023-04-24T12:30:26;9.00;8.00
26802;HPM;14378;51.796;5.808;2023-04-24T12:32:29;9.75;8.75
26802;HPM;14378;51.796;5.808;2023-04-24T12:34:31;9.00;8.00
26802;HPM;14378;51.796;5.808;2023-04-24T12:36:34;10.50;9.50
26802;HPM;14378;51.796;5.808;2023-04-24T12:38:35;10.75;9.75
26802;HPM;14378;51.796;5.808;2023-04-24T12:40:41;10.75;9.75
26802;HPM;14378;51.796;5.808;2023-04-24T12:44:55;9.50;8.50
26802;HPM;14378;51.796;5.808;2023-04-24T12:46:59;9.00;8.00
26802;HPM;14378;51.796;5.808;2023-04-24T12:49:01;9.00;8.00
26802;HPM;14378;51.796;5.808;2023-04-24T12:51:05;9.00;8.00
26802;HPM;14378;51.796;5.808;2023-04-24T12:53:09;11.67;10.67
26802;HPM;14378;51.796;5.808;2023-04-24T12:55:10;8.50;7.50
26802;HPM;14378;51.796;5.808;2023-04-24T12:57:12;11.25;10.25
26802;HPM;14378;51.796;5.808;2023-04-24T12:59:14;11.00;10.00
26802;HPM;14378;51.796;5.808;2023-04-24T13:01:18;10.25;9.25
26802;HPM;14378;51.796;5.808;2023-04-24T13:03:19;7.00;6.00
26802;HPM;14378;51.796;5.808;2023-04-24T13:05:20;8.75;7.75
26802;HPM;14378;51.796;5.808;2023-04-24T13:07:21;11.67;10.67
26802;HPM;14378;51.796;5.808;2023-04-24T13:09:22;8.75;7.75
26802;HPM;14378;51.796;5.808;2023-04-24T13:11:26;8.00;7.00
26802;HPM;14378;51.796;5.808;2023-04-24T13:13:27;6.75;5.75
26802;HPM;14378;51.796;5.808;2023-04-24T13:15:31;7.50;6.50
26802;HPM;14378;51.796;5.808;2023-04-24T13:17:32;8.75;7.75
26802;HPM;14378;51.796;5.808;2023-04-24T13:19:38;7.00;6.00
26802;HPM;14378;51.796;5.808;2023-04-24T13:21:49;9.50;8.50
26802;HPM;14378;51.796;5.808;2023-04-24T13:23:51;10.50;9.50
26802;HPM;14378;51.796;5.808;2023-04-24T13:25:52;10.33;9.33
26802;HPM;14378;51.796;5.808;2023-04-24T13:27:57;11.50;10.50
26802;HPM;14378;51.796;5.808;2023-04-24T13:29:58;8.25;7.25
26802;HPM;14378;51.796;5.808;2023-04-24T13:31:59;9.75;8.75
26802;HPM;14378;51.796;5.808;2023-04-24T13:34:01;8.00;7.00
26802;HPM;14378;51.796;5.808;2023-04-24T13:36:03;8.25;7.25
26802;HPM;14378;51.796;5.808;2023-04-24T13:38:08;9.50;8.50
26802;HPM;14378;51.796;5.808;2023-04-24T13:40:18;10.00;9.00
26802;HPM;14378;51.796;5.808;2023-04-24T13:42:21;9.00;8.00
26802;HPM;14378;51.796;5.808;2023-04-24T13:44:22;9.00;8.00
26802;HPM;14378;51.796;5.808;2023-04-24T13:46:24;7.25;6.25
26802;HPM;14378;51.796;5.808;2023-04-24T13:48:27;7.75;6.75
26802;HPM;14378;51.796;5.808;2023-04-24T13:50:28;8.50;7.50
26802;HPM;14378;51.796;5.808;2023-04-24T13:54:30;8.25;7.25
26802;HPM;14378;51.796;5.808;2023-04-24T13:56:32;8.25;7.25
26802;HPM;14378;51.796;5.808;2023-04-24T13:58:33;8.00;7.00
26802;HPM;14378;51.796;5.808;2023-04-24T14:00:37;9.00;8.00
26802;HPM;14378;51.796;5.808;2023-04-24T14:02:39;11.00;10.00